TAF Germany/Deutschland - 12 Dec 2017 - 2347 UTC - RocketRoute WX - rrwx.com
EDDB 121700Z 1218/1318 25015KT 9999 BKN015 TEMPO 1218/1221 4000 -RASN BKN009 BECMG 1221/1224 22010KT PROB30 TEMPO 1221/1306 BKN012 PROB30 TEMPO 1309/1318 18015G25KT EDDW 121700Z 1218/1318 25008KT 9999 FEW007 TEMPO 1218/1305 BKN007 BECMG 1308/1310 18012KT BECMG 1309/1311 OVC005 TEMPO 1309/1317 20015G25KT 3000 -RASN OVC003 EDDC AMD 121924Z 1219/1318 24015KT 9999 SCT040 TEMPO 1219/1222 26015G25KT BECMG 1220/1222 20010KT PROB30 TEMPO 1312/1318 17015G25KT EDDL 121700Z 1218/1324 23010KT 9999 BKN012 TEMPO 1218/1222 BKN015 BECMG 1222/1301 17011KT SCT020 BECMG 1303/1306 18015G25KT TEMPO 1308/1314 19020G30KT RA TEMPO 1319/1323 21020G35KT RA BKN013 EDFH 121700Z 1218/1318 24008KT 9999 BKN020 TEMPO 1220/1309 BKN006 BECMG 1305/1307 22015G25KT TEMPO 1310/1316 22020G35KT 1200 SN BKN004 TEMPO 1316/1318 2000 SNRA BKN005 EDDF 121700Z 1218/1324 20007KT 9999 SCT035 TEMPO 1218/1309 BKN035 BECMG 1307/1310 20015G25KT TEMPO 1312/1314 4000 RASN BKN030 TEMPO 1314/1324 RA BKN015 EDDH 121700Z 1218/1324 25008KT 9999 SCT005 BKN025 TEMPO 1218/1302 3500 BR BKN004 TEMPO 1302/1305 3500 BR BKN007 BECMG 1309/1311 18012KT TEMPO 1309/1314 20015G25KT BECMG 1310/1313 OVC005 TEMPO 1313/1317 3000 -RASN OVC003 TEMPO 1322/1324 BKN010 EDDV 121700Z 1218/1318 25010KT 9999 BKN006 TEMPO 1220/1301 BKN012 BECMG 1300/1302 SCT006 BKN020 BECMG 1308/1310 18012KT BECMG 1309/1311 OVC010 TEMPO 1309/1318 22015G25KT 3000 -RASN OVC005 EDAH 121400Z 1215/1224 25015G30KT 9999 BKN010 TEMPO 1215/1220 2500 -RASN BKN004 BECMG 1216/1219 25012KT EDSB 121700Z 1218/1318 22008KT 9999 SCT040 PROB30 TEMPO 1218/1220 4000 SHRASN BKN015CB BECMG 1307/1310 20013KT TEMPO 1310/1318 20015G30KT TEMPO 1312/1318 RA EDVK 122000Z 1221/1303 23006KT 9999 SCT025 BKN045 BECMG 1223/1301 20012KT EDDK 121700Z 1218/1324 26006KT 9999 BKN020 BECMG 1218/1221 16007KT TEMPO 1218/1221 BKN013 BECMG 1305/1308 16012KT TEMPO 1310/1315 18015G25KT RA TEMPO 1320/1324 RA BECMG 1321/1324 22011KT ETNL AMD 122050Z 1220/1306 24008KT 9999 NSW SCT010 BKN030 TEMPO 1220/1306 22010KT 4000 BR BKN005 BKN030 BY ETGL EDDP 121700Z 1218/1318 24020G30KT 9999 SCT030 BECMG 1218/1220 22011KT BECMG 1307/1309 19015G25KT EDHL   EDDM 121700Z 1218/1324 23006KT 9999 SCT040 BECMG 1308/1310 16005KT BECMG 1317/1319 23008KT TEMPO 1318/1320 3000 SN BKN010 PROB30 TEMPO 1320/1322 RASN BKN014 EDDG 121700Z 1218/1318 20009KT 9999 BKN011 TEMPO 1218/1222 BKN007 BECMG 1221/1224 SCT020 BECMG 1306/1309 20014KT TEMPO 1309/1318 20015G25KT RA BECMG 1313/1315 BKN013 EDDN 121700Z 1218/1318 21005KT 9999 SCT030 PROB30 TEMPO 1220/1306 4500 -SHSN SCT020TCU BECMG 1315/1317 20015G25KT TEMPO 1316/1318 3000 SN BKN010 EDLP 121700Z 1218/1318 23010KT 9999 SCT015 BKN020 TEMPO 1218/1223 BKN012 BECMG 1303/1306 19015G25KT TEMPO 1310/1318 21020G35KT RA EDDR 121700Z 1218/1318 22008KT 9999 FEW008 BKN025 PROB30 TEMPO 1220/1306 BKN008 BECMG 1306/1309 20015G30KT TEMPO 1310/1313 3000 SNRA BKN012 TEMPO 1314/1318 4000 RASN BKN008 EDDS 121700Z 1218/1318 24005KT 9999 SCT035 BECMG 1222/1224 VRB03KT BECMG 1308/1311 19008KT TEMPO 1314/1318 SNRA EDXW   EDDT 121700Z 1218/1318 25015KT 9999 BKN015 TEMPO 1218/1221 4000 -RASN BKN009 BECMG 1221/1224 22010KT TEMPO 1221/1306 BKN011 PROB30 TEMPO 1309/1318 18015G25KT

RocketRoute WX - rrwx.com weather for pilots